sensor_id;sensor_type;location;lat;lon;timestamp;P1;durP1;ratioP1;P2;durP2;ratioP2
79526;SDS011;68974;47.754;-3.364;2023-06-14T00:00:04;5.07;;;3.50;;
79526;SDS011;68974;47.754;-3.364;2023-06-14T00:02:30;4.25;;;3.42;;
79526;SDS011;68974;47.754;-3.364;2023-06-14T00:04:56;5.00;;;3.88;;
79526;SDS011;68974;47.754;-3.364;2023-06-14T00:07:22;6.10;;;3.47;;
79526;SDS011;68974;47.754;-3.364;2023-06-14T00:09:59;6.38;;;4.20;;
79526;SDS011;68974;47.754;-3.364;2023-06-14T00:12:24;6.70;;;3.70;;
79526;SDS011;68974;47.754;-3.364;2023-06-14T00:14:50;4.38;;;3.92;;
79526;SDS011;68974;47.754;-3.364;2023-06-14T00:17:15;5.82;;;4.50;;
79526;SDS011;68974;47.754;-3.364;2023-06-14T00:19:41;6.63;;;4.57;;
79526;SDS011;68974;47.754;-3.364;2023-06-14T00:22:06;6.28;;;4.10;;
79526;SDS011;68974;47.754;-3.364;2023-06-14T00:24:35;6.85;;;5.03;;
79526;SDS011;68974;47.754;-3.364;2023-06-14T00:27:00;5.05;;;4.13;;
79526;SDS011;68974;47.754;-3.364;2023-06-14T00:29:25;5.32;;;4.13;;
79526;SDS011;68974;47.754;-3.364;2023-06-14T00:31:51;7.35;;;4.18;;
79526;SDS011;68974;47.754;-3.364;2023-06-14T00:34:16;5.57;;;4.50;;
79526;SDS011;68974;47.754;-3.364;2023-06-14T00:36:42;6.60;;;4.68;;
79526;SDS011;68974;47.754;-3.364;2023-06-14T00:39:07;6.90;;;5.32;;
79526;SDS011;68974;47.754;-3.364;2023-06-14T00:41:33;8.20;;;4.70;;
79526;SDS011;68974;47.754;-3.364;2023-06-14T00:43:58;6.90;;;5.18;;
79526;SDS011;68974;47.754;-3.364;2023-06-14T00:46:24;6.82;;;4.65;;
79526;SDS011;68974;47.754;-3.364;2023-06-14T00:48:50;6.10;;;5.05;;
79526;SDS011;68974;47.754;-3.364;2023-06-14T00:51:16;7.05;;;5.18;;
79526;SDS011;68974;47.754;-3.364;2023-06-14T00:53:41;6.22;;;4.78;;
79526;SDS011;68974;47.754;-3.364;2023-06-14T00:56:11;8.68;;;5.30;;
79526;SDS011;68974;47.754;-3.364;2023-06-14T01:01:04;9.27;;;5.43;;
79526;SDS011;68974;47.754;-3.364;2023-06-14T01:03:29;8.95;;;5.97;;
79526;SDS011;68974;47.754;-3.364;2023-06-14T01:06:03;7.35;;;5.85;;
79526;SDS011;68974;47.754;-3.364;2023-06-14T01:11:18;6.22;;;5.15;;
79526;SDS011;68974;47.754;-3.364;2023-06-14T01:13:52;7.18;;;5.28;;
79526;SDS011;68974;47.754;-3.364;2023-06-14T01:16:19;8.98;;;5.75;;
79526;SDS011;68974;47.754;-3.364;2023-06-14T01:18:45;8.65;;;6.28;;
79526;SDS011;68974;47.754;-3.364;2023-06-14T01:21:25;8.48;;;6.20;;
79526;SDS011;68974;47.754;-3.364;2023-06-14T01:23:51;6.82;;;5.95;;
79526;SDS011;68974;47.754;-3.364;2023-06-14T01:26:23;8.15;;;6.60;;
79526;SDS011;68974;47.754;-3.364;2023-06-14T01:28:49;9.00;;;6.40;;
79526;SDS011;68974;47.754;-3.364;2023-06-14T01:31:18;8.00;;;6.75;;
79526;SDS011;68974;47.754;-3.364;2023-06-14T01:33:46;7.20;;;6.32;;
79526;SDS011;68974;47.754;-3.364;2023-06-14T01:36:14;11.00;;;7.15;;
79526;SDS011;68974;47.754;-3.364;2023-06-14T01:38:42;11.93;;;6.80;;
79526;SDS011;68974;47.754;-3.364;2023-06-14T01:41:09;11.27;;;6.95;;
79526;SDS011;68974;47.754;-3.364;2023-06-14T01:43:35;9.57;;;7.32;;
79526;SDS011;68974;47.754;-3.364;2023-06-14T01:46:01;8.93;;;6.88;;
79526;SDS011;68974;47.754;-3.364;2023-06-14T01:48:28;11.27;;;7.63;;
79526;SDS011;68974;47.754;-3.364;2023-06-14T01:50:53;12.32;;;8.40;;
79526;SDS011;68974;47.754;-3.364;2023-06-14T01:53:19;9.93;;;7.95;;
79526;SDS011;68974;47.754;-3.364;2023-06-14T01:55:44;10.68;;;7.88;;
79526;SDS011;68974;47.754;-3.364;2023-06-14T01:58:13;12.10;;;8.52;;
79526;SDS011;68974;47.754;-3.364;2023-06-14T02:00:41;11.90;;;8.23;;
79526;SDS011;68974;47.754;-3.364;2023-06-14T02:05:33;13.27;;;8.85;;
79526;SDS011;68974;47.754;-3.364;2023-06-14T02:08:00;13.05;;;8.55;;
79526;SDS011;68974;47.754;-3.364;2023-06-14T02:10:25;13.13;;;8.98;;
79526;SDS011;68974;47.754;-3.364;2023-06-14T02:12:51;13.10;;;8.93;;
79526;SDS011;68974;47.754;-3.364;2023-06-14T02:15:16;14.68;;;9.57;;
79526;SDS011;68974;47.754;-3.364;2023-06-14T02:17:43;15.40;;;11.23;;
79526;SDS011;68974;47.754;-3.364;2023-06-14T02:20:09;14.77;;;9.73;;
79526;SDS011;68974;47.754;-3.364;2023-06-14T02:22:35;12.50;;;9.38;;
79526;SDS011;68974;47.754;-3.364;2023-06-14T02:25:01;13.50;;;10.82;;
79526;SDS011;68974;47.754;-3.364;2023-06-14T02:27:26;12.23;;;8.45;;
79526;SDS011;68974;47.754;-3.364;2023-06-14T02:29:51;12.52;;;10.77;;
79526;SDS011;68974;47.754;-3.364;2023-06-14T02:32:17;13.90;;;10.93;;
79526;SDS011;68974;47.754;-3.364;2023-06-14T02:34:42;16.45;;;10.82;;
79526;SDS011;68974;47.754;-3.364;2023-06-14T02:37:08;13.00;;;9.18;;
79526;SDS011;68974;47.754;-3.364;2023-06-14T02:39:33;12.95;;;10.05;;
79526;SDS011;68974;47.754;-3.364;2023-06-14T02:42:00;11.30;;;8.25;;
79526;SDS011;68974;47.754;-3.364;2023-06-14T02:44:25;15.07;;;11.15;;
79526;SDS011;68974;47.754;-3.364;2023-06-14T02:49:21;15.63;;;9.60;;
79526;SDS011;68974;47.754;-3.364;2023-06-14T02:51:46;15.50;;;10.73;;
79526;SDS011;68974;47.754;-3.364;2023-06-14T02:54:12;15.05;;;10.32;;
79526;SDS011;68974;47.754;-3.364;2023-06-14T02:56:37;17.15;;;10.98;;
79526;SDS011;68974;47.754;-3.364;2023-06-14T02:59:03;14.07;;;10.93;;
79526;SDS011;68974;47.754;-3.364;2023-06-14T03:01:28;16.92;;;11.00;;
79526;SDS011;68974;47.754;-3.364;2023-06-14T03:04:02;16.52;;;11.57;;
79526;SDS011;68974;47.754;-3.364;2023-06-14T03:06:28;16.08;;;10.40;;
79526;SDS011;68974;47.754;-3.364;2023-06-14T03:08:55;16.83;;;10.98;;
79526;SDS011;68974;47.754;-3.364;2023-06-14T03:11:25;15.65;;;10.30;;
79526;SDS011;68974;47.754;-3.364;2023-06-14T03:13:53;18.25;;;11.43;;
79526;SDS011;68974;47.754;-3.364;2023-06-14T03:16:20;16.23;;;12.23;;
79526;SDS011;68974;47.754;-3.364;2023-06-14T03:18:48;16.13;;;11.77;;
79526;SDS011;68974;47.754;-3.364;2023-06-14T03:21:15;14.75;;;11.18;;
79526;SDS011;68974;47.754;-3.364;2023-06-14T03:23:41;17.15;;;11.15;;
79526;SDS011;68974;47.754;-3.364;2023-06-14T03:26:07;18.42;;;12.32;;
79526;SDS011;68974;47.754;-3.364;2023-06-14T03:28:33;16.65;;;12.82;;
79526;SDS011;68974;47.754;-3.364;2023-06-14T03:30:58;14.98;;;11.68;;
79526;SDS011;68974;47.754;-3.364;2023-06-14T03:33:24;15.93;;;10.75;;
79526;SDS011;68974;47.754;-3.364;2023-06-14T03:35:50;15.50;;;10.80;;
79526;SDS011;68974;47.754;-3.364;2023-06-14T03:38:16;17.02;;;11.80;;
79526;SDS011;68974;47.754;-3.364;2023-06-14T03:40:42;16.50;;;12.10;;
79526;SDS011;68974;47.754;-3.364;2023-06-14T03:43:07;15.90;;;11.45;;
79526;SDS011;68974;47.754;-3.364;2023-06-14T03:45:33;18.15;;;12.57;;
79526;SDS011;68974;47.754;-3.364;2023-06-14T03:47:58;19.13;;;13.65;;
79526;SDS011;68974;47.754;-3.364;2023-06-14T03:50:25;16.40;;;11.68;;
79526;SDS011;68974;47.754;-3.364;2023-06-14T03:52:52;18.30;;;12.35;;
79526;SDS011;68974;47.754;-3.364;2023-06-14T03:55:17;16.60;;;12.10;;
79526;SDS011;68974;47.754;-3.364;2023-06-14T03:57:43;16.45;;;11.98;;
79526;SDS011;68974;47.754;-3.364;2023-06-14T04:00:09;19.27;;;14.43;;
79526;SDS011;68974;47.754;-3.364;2023-06-14T04:05:01;19.38;;;11.55;;
79526;SDS011;68974;47.754;-3.364;2023-06-14T04:07:28;18.90;;;12.60;;
79526;SDS011;68974;47.754;-3.364;2023-06-14T04:09:54;21.50;;;14.10;;
79526;SDS011;68974;47.754;-3.364;2023-06-14T04:12:20;19.20;;;13.15;;
79526;SDS011;68974;47.754;-3.364;2023-06-14T04:14:45;18.38;;;13.70;;
79526;SDS011;68974;47.754;-3.364;2023-06-14T04:17:11;16.13;;;11.98;;
79526;SDS011;68974;47.754;-3.364;2023-06-14T04:19:36;19.23;;;13.00;;
79526;SDS011;68974;47.754;-3.364;2023-06-14T04:22:02;18.17;;;12.18;;
79526;SDS011;68974;47.754;-3.364;2023-06-14T04:24:28;23.23;;;13.60;;
79526;SDS011;68974;47.754;-3.364;2023-06-14T04:26:57;16.52;;;12.48;;
79526;SDS011;68974;47.754;-3.364;2023-06-14T04:29:23;17.95;;;12.50;;
79526;SDS011;68974;47.754;-3.364;2023-06-14T04:31:51;17.15;;;11.73;;
79526;SDS011;68974;47.754;-3.364;2023-06-14T04:34:17;18.92;;;12.73;;
79526;SDS011;68974;47.754;-3.364;2023-06-14T04:36:42;17.48;;;12.05;;
79526;SDS011;68974;47.754;-3.364;2023-06-14T04:39:14;19.58;;;13.50;;
79526;SDS011;68974;47.754;-3.364;2023-06-14T04:41:48;15.15;;;11.02;;
79526;SDS011;68974;47.754;-3.364;2023-06-14T04:44:18;16.48;;;11.65;;
79526;SDS011;68974;47.754;-3.364;2023-06-14T04:49:13;14.73;;;11.15;;
79526;SDS011;68974;47.754;-3.364;2023-06-14T04:51:42;17.55;;;13.23;;
79526;SDS011;68974;47.754;-3.364;2023-06-14T04:54:08;18.95;;;12.70;;
79526;SDS011;68974;47.754;-3.364;2023-06-14T04:56:40;15.63;;;11.55;;
79526;SDS011;68974;47.754;-3.364;2023-06-14T04:59:07;15.50;;;11.25;;
79526;SDS011;68974;47.754;-3.364;2023-06-14T05:01:33;15.88;;;11.43;;
79526;SDS011;68974;47.754;-3.364;2023-06-14T05:03:59;18.17;;;13.38;;
79526;SDS011;68974;47.754;-3.364;2023-06-14T05:06:24;14.68;;;10.88;;
79526;SDS011;68974;47.754;-3.364;2023-06-14T05:08:52;15.55;;;11.30;;
79526;SDS011;68974;47.754;-3.364;2023-06-14T05:11:18;16.80;;;11.30;;
79526;SDS011;68974;47.754;-3.364;2023-06-14T05:13:43;17.15;;;12.02;;
79526;SDS011;68974;47.754;-3.364;2023-06-14T05:16:09;17.33;;;11.65;;
79526;SDS011;68974;47.754;-3.364;2023-06-14T05:18:36;19.10;;;12.43;;
79526;SDS011;68974;47.754;-3.364;2023-06-14T05:21:02;19.17;;;11.90;;
79526;SDS011;68974;47.754;-3.364;2023-06-14T05:23:29;16.20;;;11.30;;
79526;SDS011;68974;47.754;-3.364;2023-06-14T05:25:55;16.23;;;12.02;;
79526;SDS011;68974;47.754;-3.364;2023-06-14T05:28:21;14.18;;;10.25;;
79526;SDS011;68974;47.754;-3.364;2023-06-14T05:30:47;13.73;;;10.82;;
79526;SDS011;68974;47.754;-3.364;2023-06-14T05:33:12;13.50;;;10.38;;
79526;SDS011;68974;47.754;-3.364;2023-06-14T05:35:38;15.23;;;11.80;;
79526;SDS011;68974;47.754;-3.364;2023-06-14T05:38:03;13.43;;;10.38;;
79526;SDS011;68974;47.754;-3.364;2023-06-14T05:40:29;15.85;;;11.43;;
79526;SDS011;68974;47.754;-3.364;2023-06-14T05:42:54;15.75;;;11.38;;
79526;SDS011;68974;47.754;-3.364;2023-06-14T05:45:19;14.95;;;11.73;;
79526;SDS011;68974;47.754;-3.364;2023-06-14T05:47:45;17.23;;;11.27;;
79526;SDS011;68974;47.754;-3.364;2023-06-14T05:50:10;15.30;;;13.18;;
79526;SDS011;68974;47.754;-3.364;2023-06-14T05:52:35;17.15;;;12.80;;
79526;SDS011;68974;47.754;-3.364;2023-06-14T05:55:02;15.77;;;12.05;;
79526;SDS011;68974;47.754;-3.364;2023-06-14T05:57:28;15.20;;;11.60;;
79526;SDS011;68974;47.754;-3.364;2023-06-14T05:59:54;13.95;;;11.07;;
79526;SDS011;68974;47.754;-3.364;2023-06-14T06:02:19;14.52;;;11.73;;
79526;SDS011;68974;47.754;-3.364;2023-06-14T06:04:45;12.48;;;10.35;;
79526;SDS011;68974;47.754;-3.364;2023-06-14T06:07:10;16.38;;;11.73;;
79526;SDS011;68974;47.754;-3.364;2023-06-14T06:09:36;17.02;;;11.95;;
79526;SDS011;68974;47.754;-3.364;2023-06-14T06:12:01;16.27;;;12.35;;
79526;SDS011;68974;47.754;-3.364;2023-06-14T06:14:26;15.50;;;11.55;;
79526;SDS011;68974;47.754;-3.364;2023-06-14T06:16:53;14.60;;;11.55;;
79526;SDS011;68974;47.754;-3.364;2023-06-14T06:19:19;14.80;;;10.73;;
79526;SDS011;68974;47.754;-3.364;2023-06-14T06:21:44;15.80;;;12.32;;
79526;SDS011;68974;47.754;-3.364;2023-06-14T06:24:09;14.65;;;11.10;;
79526;SDS011;68974;47.754;-3.364;2023-06-14T06:26:35;13.05;;;10.30;;
79526;SDS011;68974;47.754;-3.364;2023-06-14T06:29:00;16.70;;;12.05;;
79526;SDS011;68974;47.754;-3.364;2023-06-14T06:31:29;13.85;;;10.90;;
79526;SDS011;68974;47.754;-3.364;2023-06-14T06:33:54;15.00;;;11.25;;
79526;SDS011;68974;47.754;-3.364;2023-06-14T06:36:20;16.85;;;11.27;;
79526;SDS011;68974;47.754;-3.364;2023-06-14T06:38:46;15.30;;;12.13;;
79526;SDS011;68974;47.754;-3.364;2023-06-14T06:41:12;14.27;;;10.50;;
79526;SDS011;68974;47.754;-3.364;2023-06-14T06:43:37;14.68;;;12.45;;
79526;SDS011;68974;47.754;-3.364;2023-06-14T06:46:03;16.02;;;13.10;;
79526;SDS011;68974;47.754;-3.364;2023-06-14T06:48:28;15.80;;;11.80;;
79526;SDS011;68974;47.754;-3.364;2023-06-14T06:50:54;17.95;;;11.98;;
79526;SDS011;68974;47.754;-3.364;2023-06-14T06:53:20;13.45;;;10.77;;
79526;SDS011;68974;47.754;-3.364;2023-06-14T06:55:45;13.57;;;10.30;;
79526;SDS011;68974;47.754;-3.364;2023-06-14T06:58:11;13.13;;;10.65;;
79526;SDS011;68974;47.754;-3.364;2023-06-14T07:00:37;15.32;;;11.52;;
79526;SDS011;68974;47.754;-3.364;2023-06-14T07:03:02;11.48;;;9.77;;
79526;SDS011;68974;47.754;-3.364;2023-06-14T07:05:28;14.25;;;10.40;;
79526;SDS011;68974;47.754;-3.364;2023-06-14T07:07:54;15.63;;;10.40;;
79526;SDS011;68974;47.754;-3.364;2023-06-14T07:10:20;16.15;;;11.25;;
79526;SDS011;68974;47.754;-3.364;2023-06-14T07:12:45;14.43;;;10.20;;
79526;SDS011;68974;47.754;-3.364;2023-06-14T07:15:11;12.65;;;9.30;;
79526;SDS011;68974;47.754;-3.364;2023-06-14T07:17:36;12.30;;;10.48;;
79526;SDS011;68974;47.754;-3.364;2023-06-14T07:20:03;12.50;;;10.15;;
79526;SDS011;68974;47.754;-3.364;2023-06-14T07:22:32;12.43;;;9.20;;
79526;SDS011;68974;47.754;-3.364;2023-06-14T07:24:58;14.18;;;10.70;;
79526;SDS011;68974;47.754;-3.364;2023-06-14T07:27:23;15.10;;;10.57;;
79526;SDS011;68974;47.754;-3.364;2023-06-14T07:29:48;14.38;;;10.25;;
79526;SDS011;68974;47.754;-3.364;2023-06-14T07:32:14;11.73;;;8.93;;
79526;SDS011;68974;47.754;-3.364;2023-06-14T07:34:39;12.35;;;9.68;;
79526;SDS011;68974;47.754;-3.364;2023-06-14T07:37:05;11.90;;;9.27;;
79526;SDS011;68974;47.754;-3.364;2023-06-14T07:39:31;11.75;;;9.43;;
79526;SDS011;68974;47.754;-3.364;2023-06-14T07:41:56;11.25;;;9.25;;
79526;SDS011;68974;47.754;-3.364;2023-06-14T07:44:21;11.40;;;8.77;;
79526;SDS011;68974;47.754;-3.364;2023-06-14T07:46:47;11.65;;;8.35;;
79526;SDS011;68974;47.754;-3.364;2023-06-14T07:49:15;12.98;;;9.93;;
79526;SDS011;68974;47.754;-3.364;2023-06-14T07:51:41;9.98;;;8.77;;
79526;SDS011;68974;47.754;-3.364;2023-06-14T07:54:06;11.52;;;8.57;;
79526;SDS011;68974;47.754;-3.364;2023-06-14T07:56:33;11.32;;;8.02;;
79526;SDS011;68974;47.754;-3.364;2023-06-14T07:58:59;10.52;;;9.27;;
79526;SDS011;68974;47.754;-3.364;2023-06-14T08:01:24;19.02;;;11.25;;
79526;SDS011;68974;47.754;-3.364;2023-06-14T08:03:50;9.45;;;8.35;;
79526;SDS011;68974;47.754;-3.364;2023-06-14T08:06:16;8.98;;;7.30;;
79526;SDS011;68974;47.754;-3.364;2023-06-14T08:08:41;11.20;;;8.02;;
79526;SDS011;68974;47.754;-3.364;2023-06-14T08:11:07;9.07;;;7.00;;
79526;SDS011;68974;47.754;-3.364;2023-06-14T08:13:32;9.15;;;7.55;;
79526;SDS011;68974;47.754;-3.364;2023-06-14T08:15:58;8.95;;;7.07;;
79526;SDS011;68974;47.754;-3.364;2023-06-14T08:18:23;8.98;;;7.65;;
79526;SDS011;68974;47.754;-3.364;2023-06-14T08:20:49;9.48;;;7.07;;
79526;SDS011;68974;47.754;-3.364;2023-06-14T08:23:15;11.85;;;9.30;;
79526;SDS011;68974;47.754;-3.364;2023-06-14T08:25:44;7.53;;;6.80;;
79526;SDS011;68974;47.754;-3.364;2023-06-14T08:28:09;7.47;;;6.13;;
79526;SDS011;68974;47.754;-3.364;2023-06-14T08:30:35;9.38;;;7.68;;
79526;SDS011;68974;47.754;-3.364;2023-06-14T08:33:01;7.80;;;6.57;;
79526;SDS011;68974;47.754;-3.364;2023-06-14T08:35:26;11.10;;;7.40;;
79526;SDS011;68974;47.754;-3.364;2023-06-14T08:37:52;9.80;;;7.63;;
79526;SDS011;68974;47.754;-3.364;2023-06-14T08:42:52;7.47;;;6.25;;
79526;SDS011;68974;47.754;-3.364;2023-06-14T08:45:19;7.18;;;6.47;;
79526;SDS011;68974;47.754;-3.364;2023-06-14T08:47:49;8.40;;;6.53;;
79526;SDS011;68974;47.754;-3.364;2023-06-14T08:50:23;10.07;;;7.32;;
79526;SDS011;68974;47.754;-3.364;2023-06-14T08:52:53;7.43;;;6.00;;
79526;SDS011;68974;47.754;-3.364;2023-06-14T08:55:19;9.30;;;7.25;;
79526;SDS011;68974;47.754;-3.364;2023-06-14T08:57:50;11.52;;;8.02;;
79526;SDS011;68974;47.754;-3.364;2023-06-14T09:00:18;8.77;;;7.18;;
79526;SDS011;68974;47.754;-3.364;2023-06-14T09:02:45;9.55;;;6.80;;
79526;SDS011;68974;47.754;-3.364;2023-06-14T09:05:11;7.13;;;6.43;;
79526;SDS011;68974;47.754;-3.364;2023-06-14T09:07:43;9.05;;;5.90;;
79526;SDS011;68974;47.754;-3.364;2023-06-14T09:10:10;6.75;;;6.03;;
79526;SDS011;68974;47.754;-3.364;2023-06-14T09:12:37;7.85;;;7.10;;
79526;SDS011;68974;47.754;-3.364;2023-06-14T09:15:04;10.25;;;6.78;;
79526;SDS011;68974;47.754;-3.364;2023-06-14T09:17:37;9.27;;;6.57;;
79526;SDS011;68974;47.754;-3.364;2023-06-14T09:20:04;7.72;;;7.00;;
79526;SDS011;68974;47.754;-3.364;2023-06-14T09:22:31;9.77;;;5.57;;
79526;SDS011;68974;47.754;-3.364;2023-06-14T09:24:58;7.53;;;6.70;;
79526;SDS011;68974;47.754;-3.364;2023-06-14T09:27:25;8.20;;;6.82;;
79526;SDS011;68974;47.754;-3.364;2023-06-14T09:29:54;6.82;;;6.13;;
79526;SDS011;68974;47.754;-3.364;2023-06-14T09:32:22;10.30;;;7.35;;
79526;SDS011;68974;47.754;-3.364;2023-06-14T09:34:48;6.45;;;5.50;;
79526;SDS011;68974;47.754;-3.364;2023-06-14T09:37:25;6.63;;;5.97;;
79526;SDS011;68974;47.754;-3.364;2023-06-14T09:39:52;7.82;;;6.28;;
79526;SDS011;68974;47.754;-3.364;2023-06-14T09:42:18;8.27;;;7.30;;
79526;SDS011;68974;47.754;-3.364;2023-06-14T09:44:47;10.60;;;6.28;;
79526;SDS011;68974;47.754;-3.364;2023-06-14T09:47:14;7.50;;;6.15;;
79526;SDS011;68974;47.754;-3.364;2023-06-14T09:49:40;7.18;;;6.45;;
79526;SDS011;68974;47.754;-3.364;2023-06-14T09:52:06;8.07;;;5.65;;
79526;SDS011;68974;47.754;-3.364;2023-06-14T09:54:35;7.22;;;6.53;;
79526;SDS011;68974;47.754;-3.364;2023-06-14T09:57:07;7.10;;;6.50;;
79526;SDS011;68974;47.754;-3.364;2023-06-14T09:59:33;7.55;;;5.80;;
79526;SDS011;68974;47.754;-3.364;2023-06-14T10:02:02;6.95;;;6.35;;
79526;SDS011;68974;47.754;-3.364;2023-06-14T10:04:35;7.55;;;6.85;;
79526;SDS011;68974;47.754;-3.364;2023-06-14T10:07:02;8.27;;;6.88;;
79526;SDS011;68974;47.754;-3.364;2023-06-14T10:09:30;9.30;;;6.43;;
79526;SDS011;68974;47.754;-3.364;2023-06-14T10:11:55;7.78;;;7.07;;
79526;SDS011;68974;47.754;-3.364;2023-06-14T10:14:21;7.47;;;6.43;;
79526;SDS011;68974;47.754;-3.364;2023-06-14T10:16:59;8.65;;;5.60;;
79526;SDS011;68974;47.754;-3.364;2023-06-14T10:19:37;7.38;;;6.35;;
79526;SDS011;68974;47.754;-3.364;2023-06-14T10:22:14;6.32;;;5.82;;
79526;SDS011;68974;47.754;-3.364;2023-06-14T10:24:44;8.10;;;6.82;;
79526;SDS011;68974;47.754;-3.364;2023-06-14T10:27:14;8.48;;;6.35;;
79526;SDS011;68974;47.754;-3.364;2023-06-14T10:30:24;7.97;;;7.18;;
79526;SDS011;68974;47.754;-3.364;2023-06-14T10:32:32;6.78;;;5.95;;
79526;SDS011;68974;47.754;-3.364;2023-06-14T10:37:25;7.03;;;6.28;;
79526;SDS011;68974;47.754;-3.364;2023-06-14T10:39:51;6.55;;;5.95;;
79526;SDS011;68974;47.754;-3.364;2023-06-14T10:42:16;8.13;;;6.07;;
79526;SDS011;68974;47.754;-3.364;2023-06-14T10:50:12;7.72;;;6.40;;
79526;SDS011;68974;47.754;-3.364;2023-06-14T10:52:40;7.10;;;6.50;;
79526;SDS011;68974;47.754;-3.364;2023-06-14T10:57:37;7.53;;;6.43;;
79526;SDS011;68974;47.754;-3.364;2023-06-14T11:00:05;9.00;;;6.07;;
79526;SDS011;68974;47.754;-3.364;2023-06-14T11:05:05;7.75;;;6.53;;
79526;SDS011;68974;47.754;-3.364;2023-06-14T11:13:04;5.90;;;5.30;;
79526;SDS011;68974;47.754;-3.364;2023-06-14T11:15:30;7.88;;;5.75;;
79526;SDS011;68974;47.754;-3.364;2023-06-14T11:17:57;6.82;;;5.93;;
79526;SDS011;68974;47.754;-3.364;2023-06-14T11:20:25;7.07;;;6.07;;
79526;SDS011;68974;47.754;-3.364;2023-06-14T11:22:52;7.15;;;5.13;;
79526;SDS011;68974;47.754;-3.364;2023-06-14T11:25:19;5.20;;;4.70;;
79526;SDS011;68974;47.754;-3.364;2023-06-14T11:27:44;8.88;;;5.53;;
79526;SDS011;68974;47.754;-3.364;2023-06-14T11:30:10;5.60;;;4.65;;
79526;SDS011;68974;47.754;-3.364;2023-06-14T11:32:37;6.75;;;5.88;;
79526;SDS011;68974;47.754;-3.364;2023-06-14T11:35:03;8.23;;;5.13;;
79526;SDS011;68974;47.754;-3.364;2023-06-14T11:37:33;7.53;;;5.45;;
79526;SDS011;68974;47.754;-3.364;2023-06-14T11:40:01;7.40;;;5.63;;
79526;SDS011;68974;47.754;-3.364;2023-06-14T11:42:29;6.60;;;5.85;;
79526;SDS011;68974;47.754;-3.364;2023-06-14T11:44:55;6.47;;;5.38;;
79526;SDS011;68974;47.754;-3.364;2023-06-14T11:47:21;6.88;;;5.38;;
79526;SDS011;68974;47.754;-3.364;2023-06-14T11:49:47;6.78;;;4.80;;
79526;SDS011;68974;47.754;-3.364;2023-06-14T11:52:13;5.72;;;5.13;;
79526;SDS011;68974;47.754;-3.364;2023-06-14T11:54:39;5.50;;;5.00;;
79526;SDS011;68974;47.754;-3.364;2023-06-14T11:57:06;7.97;;;5.25;;
79526;SDS011;68974;47.754;-3.364;2023-06-14T12:02:02;6.55;;;5.50;;
79526;SDS011;68974;47.754;-3.364;2023-06-14T12:04:29;6.40;;;5.15;;
79526;SDS011;68974;47.754;-3.364;2023-06-14T12:06:55;6.68;;;5.25;;
79526;SDS011;68974;47.754;-3.364;2023-06-14T12:09:22;10.25;;;5.55;;
79526;SDS011;68974;47.754;-3.364;2023-06-14T12:11:49;6.47;;;5.20;;
79526;SDS011;68974;47.754;-3.364;2023-06-14T12:14:14;5.78;;;4.60;;
79526;SDS011;68974;47.754;-3.364;2023-06-14T12:16:40;6.28;;;5.00;;
79526;SDS011;68974;47.754;-3.364;2023-06-14T12:19:11;11.13;;;5.65;;
79526;SDS011;68974;47.754;-3.364;2023-06-14T12:21:38;6.85;;;5.53;;
79526;SDS011;68974;47.754;-3.364;2023-06-14T12:24:07;7.80;;;6.50;;
79526;SDS011;68974;47.754;-3.364;2023-06-14T12:26:33;7.70;;;6.93;;
79526;SDS011;68974;47.754;-3.364;2023-06-14T12:29:05;9.93;;;5.78;;
79526;SDS011;68974;47.754;-3.364;2023-06-14T12:31:31;10.75;;;6.03;;
79526;SDS011;68974;47.754;-3.364;2023-06-14T12:33:57;7.93;;;5.25;;
79526;SDS011;68974;47.754;-3.364;2023-06-14T12:36:22;6.10;;;5.25;;
79526;SDS011;68974;47.754;-3.364;2023-06-14T12:38:48;8.93;;;6.18;;
79526;SDS011;68974;47.754;-3.364;2023-06-14T12:41:14;8.57;;;4.97;;
79526;SDS011;68974;47.754;-3.364;2023-06-14T12:43:40;10.02;;;5.50;;
79526;SDS011;68974;47.754;-3.364;2023-06-14T12:46:07;8.95;;;6.13;;
79526;SDS011;68974;47.754;-3.364;2023-06-14T12:48:32;7.80;;;5.75;;
79526;SDS011;68974;47.754;-3.364;2023-06-14T12:50:59;7.55;;;5.43;;
79526;SDS011;68974;47.754;-3.364;2023-06-14T12:53:24;9.02;;;5.18;;
79526;SDS011;68974;47.754;-3.364;2023-06-14T12:55:50;7.78;;;5.28;;
79526;SDS011;68974;47.754;-3.364;2023-06-14T12:58:15;7.32;;;4.78;;
79526;SDS011;68974;47.754;-3.364;2023-06-14T13:00:42;8.40;;;5.25;;
79526;SDS011;68974;47.754;-3.364;2023-06-14T13:03:07;4.85;;;4.35;;
79526;SDS011;68974;47.754;-3.364;2023-06-14T13:05:33;7.63;;;4.47;;
79526;SDS011;68974;47.754;-3.364;2023-06-14T13:07:59;7.68;;;5.25;;
79526;SDS011;68974;47.754;-3.364;2023-06-14T13:10:25;5.90;;;4.55;;
79526;SDS011;68974;47.754;-3.364;2023-06-14T13:12:51;7.55;;;4.60;;
79526;SDS011;68974;47.754;-3.364;2023-06-14T13:15:16;5.75;;;4.68;;
79526;SDS011;68974;47.754;-3.364;2023-06-14T13:17:42;7.28;;;5.00;;
79526;SDS011;68974;47.754;-3.364;2023-06-14T13:22:34;5.18;;;4.65;;
79526;SDS011;68974;47.754;-3.364;2023-06-14T13:25:01;7.00;;;4.63;;
79526;SDS011;68974;47.754;-3.364;2023-06-14T13:27:27;9.35;;;4.82;;
79526;SDS011;68974;47.754;-3.364;2023-06-14T13:29:53;9.55;;;4.35;;
79526;SDS011;68974;47.754;-3.364;2023-06-14T13:32:20;13.38;;;5.65;;
79526;SDS011;68974;47.754;-3.364;2023-06-14T13:34:46;10.57;;;6.40;;
79526;SDS011;68974;47.754;-3.364;2023-06-14T13:37:12;12.40;;;5.75;;
79526;SDS011;68974;47.754;-3.364;2023-06-14T13:39:37;7.60;;;4.97;;
79526;SDS011;68974;47.754;-3.364;2023-06-14T13:42:03;13.48;;;5.90;;
79526;SDS011;68974;47.754;-3.364;2023-06-14T13:44:29;5.38;;;4.88;;
79526;SDS011;68974;47.754;-3.364;2023-06-14T13:46:54;6.25;;;4.30;;
79526;SDS011;68974;47.754;-3.364;2023-06-14T13:49:19;5.32;;;4.72;;
79526;SDS011;68974;47.754;-3.364;2023-06-14T13:51:45;6.97;;;4.60;;
79526;SDS011;68974;47.754;-3.364;2023-06-14T13:54:12;8.95;;;5.30;;
79526;SDS011;68974;47.754;-3.364;2023-06-14T13:56:39;4.75;;;4.10;;
79526;SDS011;68974;47.754;-3.364;2023-06-14T13:59:04;6.80;;;4.15;;
79526;SDS011;68974;47.754;-3.364;2023-06-14T14:01:30;4.80;;;4.15;;
79526;SDS011;68974;47.754;-3.364;2023-06-14T14:03:55;6.07;;;4.38;;
79526;SDS011;68974;47.754;-3.364;2023-06-14T14:06:21;5.47;;;4.47;;
79526;SDS011;68974;47.754;-3.364;2023-06-14T14:08:46;21.08;;;6.38;;
79526;SDS011;68974;47.754;-3.364;2023-06-14T14:11:12;14.75;;;5.82;;
79526;SDS011;68974;47.754;-3.364;2023-06-14T14:13:37;13.68;;;5.47;;
79526;SDS011;68974;47.754;-3.364;2023-06-14T14:16:04;17.50;;;6.72;;
79526;SDS011;68974;47.754;-3.364;2023-06-14T14:18:30;24.38;;;6.65;;
79526;SDS011;68974;47.754;-3.364;2023-06-14T14:20:57;14.00;;;5.28;;
79526;SDS011;68974;47.754;-3.364;2023-06-14T14:23:23;14.60;;;5.82;;
79526;SDS011;68974;47.754;-3.364;2023-06-14T14:25:49;8.90;;;4.50;;
79526;SDS011;68974;47.754;-3.364;2023-06-14T14:28:14;5.55;;;3.90;;
79526;SDS011;68974;47.754;-3.364;2023-06-14T14:30:41;6.82;;;4.28;;
79526;SDS011;68974;47.754;-3.364;2023-06-14T14:33:07;6.13;;;4.05;;
79526;SDS011;68974;47.754;-3.364;2023-06-14T14:35:33;4.65;;;4.20;;
79526;SDS011;68974;47.754;-3.364;2023-06-14T14:37:58;5.10;;;4.38;;
79526;SDS011;68974;47.754;-3.364;2023-06-14T14:40:24;4.95;;;4.40;;
79526;SDS011;68974;47.754;-3.364;2023-06-14T14:42:49;4.43;;;4.03;;
79526;SDS011;68974;47.754;-3.364;2023-06-14T14:45:15;5.47;;;3.85;;
79526;SDS011;68974;47.754;-3.364;2023-06-14T14:47:40;7.32;;;4.63;;
79526;SDS011;68974;47.754;-3.364;2023-06-14T14:50:06;11.48;;;4.65;;
79526;SDS011;68974;47.754;-3.364;2023-06-14T14:52:35;6.10;;;4.20;;
79526;SDS011;68974;47.754;-3.364;2023-06-14T14:55:01;7.85;;;5.05;;
79526;SDS011;68974;47.754;-3.364;2023-06-14T14:57:27;6.43;;;4.60;;
79526;SDS011;68974;47.754;-3.364;2023-06-14T14:59:53;7.35;;;4.68;;